createdAt,value
2018-11-04T00:01:58.000Z,18.48
2018-11-04T00:11:58.000Z,18.45
2018-11-04T00:21:58.000Z,18.47
2018-11-04T00:32:01.000Z,18.41
2018-11-04T00:41:58.000Z,18.39
2018-11-04T00:51:58.000Z,18.35
2018-11-04T01:01:58.000Z,18.34
2018-11-04T01:11:58.000Z,18.33
2018-11-04T01:21:58.000Z,18.28
2018-11-04T01:31:58.000Z,18.26
2018-11-04T01:41:58.000Z,18.23
2018-11-04T01:51:58.000Z,18.2
2018-11-04T02:01:58.000Z,18.18
2018-11-04T02:11:58.000Z,18.15
2018-11-04T02:21:58.000Z,18.12
2018-11-04T02:31:58.000Z,18.11
2018-11-04T02:41:58.000Z,18.07
2018-11-04T02:51:58.000Z,18.07
2018-11-04T03:01:58.000Z,18.03
2018-11-04T03:11:58.000Z,18.01
2018-11-04T03:21:58.000Z,18
2018-11-04T03:31:58.000Z,17.96
2018-11-04T03:41:58.000Z,17.92
2018-11-04T03:51:58.000Z,17.94
2018-11-04T04:01:58.000Z,17.91
2018-11-04T04:11:58.000Z,17.9
2018-11-04T04:21:58.000Z,17.88
2018-11-04T04:31:58.000Z,17.87
2018-11-04T04:41:58.000Z,17.82
2018-11-04T04:51:58.000Z,17.83
2018-11-04T05:01:58.000Z,17.79
2018-11-04T05:11:58.000Z,17.78
2018-11-04T05:21:58.000Z,17.75
2018-11-04T05:31:58.000Z,17.72
2018-11-04T05:41:58.000Z,17.72
2018-11-04T05:51:58.000Z,17.69
2018-11-04T06:01:58.000Z,17.7
2018-11-04T06:11:58.000Z,17.68
2018-11-04T06:21:58.000Z,17.7
2018-11-04T06:31:58.000Z,17.68
2018-11-04T06:41:58.000Z,17.67
2018-11-04T06:51:58.000Z,17.66
2018-11-04T07:01:58.000Z,17.67
2018-11-04T07:11:59.000Z,17.69
2018-11-04T07:21:58.000Z,17.71
2018-11-04T07:31:58.000Z,17.71
2018-11-04T07:41:58.000Z,17.72
2018-11-04T07:51:59.000Z,17.72
2018-11-04T08:01:59.000Z,17.72
2018-11-04T08:11:59.000Z,17.72
2018-11-04T08:21:59.000Z,17.75
2018-11-04T08:31:59.000Z,17.77
2018-11-04T08:41:59.000Z,17.75
2018-11-04T08:51:59.000Z,17.79
2018-11-04T09:01:59.000Z,17.81
2018-11-04T09:11:59.000Z,17.83
2018-11-04T09:21:59.000Z,17.84
2018-11-04T09:31:59.000Z,17.89
2018-11-04T09:41:59.000Z,17.92
2018-11-04T09:51:59.000Z,17.92
2018-11-04T10:01:59.000Z,17.97
2018-11-04T10:11:59.000Z,18.01
2018-11-04T10:21:59.000Z,18.04
2018-11-04T20:25:03.000Z,19.63
2018-11-04T20:35:03.000Z,19.46
2018-11-04T20:45:03.000Z,19.31
2018-11-04T20:55:03.000Z,19.3
2018-11-04T21:05:03.000Z,19.23
2018-11-04T21:15:03.000Z,19.16
2018-11-04T21:25:03.000Z,19.21
2018-11-04T21:35:03.000Z,19.17
2018-11-04T21:45:03.000Z,19.17
2018-11-04T21:55:07.000Z,19.14
2018-11-04T22:05:04.000Z,19.12
2018-11-04T22:15:03.000Z,19.09
2018-11-04T22:35:04.000Z,19.07
2018-11-04T22:45:03.000Z,19.06
2018-11-04T22:55:03.000Z,19.03
2018-11-04T23:05:03.000Z,19
2018-11-04T23:15:03.000Z,18.97
2018-11-04T23:25:03.000Z,18.96
2018-11-04T23:35:03.000Z,18.93
2018-11-04T23:45:03.000Z,18.92
2018-11-04T23:55:03.000Z,18.9
